Time;durP1;ratioP1;P1;durP2;ratioP2;P2;SDS_P1;SDS_P2;PMS_P1;PMS_P2;Temp;Humidity;BMP_temperature;BMP_pressure;BME280_temperature;BME280_humidity;BME280_pressure;Samples;Min_cycle;Max_cycle;Signal;HPM_P1;HPM_P2
2021/07/07 00:00:58;;;;;;;9.25;8.35;;;;;;;;;;6221146;23;20428;-58
2021/07/07 00:03:27;;;;;;;8.68;7.85;;;;;;;;;;6247865;23;20183;-58
2021/07/07 00:05:52;;;;;;;7.60;6.90;;;;;;;;;;6247417;23;20437;-59
2021/07/07 00:08:18;;;;;;;6.82;6.22;;;;;;;;;;6247784;23;20002;-58
2021/07/07 00:10:43;;;;;;;7.38;6.68;;;;;;;;;;6247788;23;20031;-58
2021/07/07 00:13:09;;;;;;;7.65;6.85;;;;;;;;;;6215547;23;20019;-58
2021/07/07 00:15:34;;;;;;;7.88;7.20;;;;;;;;;;6217617;23;20009;-59
2021/07/07 00:18:02;;;;;;;7.90;7.30;;;;;;;;;;6217636;23;20007;-58
2021/07/07 00:20:34;;;;;;;7.85;7.22;;;;;;;;;;6217588;23;20007;-58
2021/07/07 00:23:00;;;;;;;7.03;6.43;;;;;;;;;;6217976;23;20001;-58
2021/07/07 00:25:25;;;;;;;7.82;7.20;;;;;;;;;;6217145;23;20003;-58
2021/07/07 00:27:53;;;;;;;7.85;7.25;;;;;;;;;;6217527;23;20009;-59
2021/07/07 00:30:19;;;;;;;8.88;7.82;;;;;;;;;;6217488;23;20004;-59
2021/07/07 00:32:47;;;;;;;8.15;7.45;;;;;;;;;;6217224;23;20387;-59
2021/07/07 00:35:13;;;;;;;8.07;7.40;;;;;;;;;;6217334;23;19996;-59
2021/07/07 00:37:38;;;;;;;9.13;8.25;;;;;;;;;;6217381;23;20023;-59
2021/07/07 00:40:05;;;;;;;7.78;7.05;;;;;;;;;;6217181;23;20007;-59
2021/07/07 00:42:35;;;;;;;7.72;7.07;;;;;;;;;;6217192;23;20336;-59
2021/07/07 00:45:00;;;;;;;8.02;7.32;;;;;;;;;;6217290;23;20433;-59
2021/07/07 00:47:26;;;;;;;8.13;7.43;;;;;;;;;;6215494;23;20015;-59
2021/07/07 00:49:51;;;;;;;8.10;7.40;;;;;;;;;;6217180;23;19997;-58
2021/07/07 00:52:20;;;;;;;8.35;7.55;;;;;;;;;;6216843;23;20062;-58
2021/07/07 00:54:49;;;;;;;8.20;7.53;;;;;;;;;;6215590;23;19996;-59
2021/07/07 00:57:18;;;;;;;8.45;7.78;;;;;;;;;;6217286;23;20008;-59
2021/07/07 00:59:43;;;;;;;7.95;7.30;;;;;;;;;;6217118;23;20333;-59
2021/07/07 01:02:10;;;;;;;7.93;7.18;;;;;;;;;;6216752;23;20012;-59
2021/07/07 01:04:35;;;;;;;7.57;6.97;;;;;;;;;;6216885;23;20028;-59
2021/07/07 01:07:01;;;;;;;7.80;7.10;;;;;;;;;;6217014;23;20055;-59
2021/07/07 01:09:27;;;;;;;7.75;7.05;;;;;;;;;;6217370;23;19996;-59
2021/07/07 01:11:52;;;;;;;7.72;6.85;;;;;;;;;;6217010;23;20444;-59
2021/07/07 01:14:17;;;;;;;8.25;7.60;;;;;;;;;;6240451;23;20018;-59
2021/07/07 01:16:43;;;;;;;9.55;7.97;;;;;;;;;;6247050;23;20083;-58
2021/07/07 01:19:10;;;;;;;9.45;7.95;;;;;;;;;;6247735;23;19996;-58
2021/07/07 01:21:36;;;;;;;8.40;7.63;;;;;;;;;;6220376;23;20011;-59
2021/07/07 01:24:01;;;;;;;8.15;7.45;;;;;;;;;;6247055;23;20383;-59
2021/07/07 01:26:26;;;;;;;8.13;7.47;;;;;;;;;;6247169;23;20087;-59
2021/07/07 01:28:54;;;;;;;8.60;7.80;;;;;;;;;;6220425;23;20401;-59
2021/07/07 01:31:19;;;;;;;8.60;7.80;;;;;;;;;;6220183;23;20007;-59
2021/07/07 01:33:46;;;;;;;7.65;7.10;;;;;;;;;;6246946;23;19996;-59
2021/07/07 01:36:12;;;;;;;10.45;6.78;;;;;;;;;;6246743;23;20008;-59
2021/07/07 01:38:37;;;;;;;7.43;6.82;;;;;;;;;;6246753;23;20008;-59
2021/07/07 01:41:03;;;;;;;8.00;7.30;;;;;;;;;;6246819;23;20008;-59
2021/07/07 01:43:29;;;;;;;8.48;7.63;;;;;;;;;;6246730;23;20081;-59
2021/07/07 01:45:55;;;;;;;8.65;7.88;;;;;;;;;;6246583;23;20433;-59
2021/07/07 01:48:22;;;;;;;8.05;7.18;;;;;;;;;;6247112;23;19992;-59
2021/07/07 01:50:49;;;;;;;8.23;7.53;;;;;;;;;;6246882;23;20432;-59
2021/07/07 01:53:14;;;;;;;8.07;7.47;;;;;;;;;;6246818;23;19992;-59
2021/07/07 01:55:41;;;;;;;7.95;7.25;;;;;;;;;;6246881;23;20035;-59
2021/07/07 01:58:07;;;;;;;8.32;7.60;;;;;;;;;;6246663;23;20023;-59
2021/07/07 02:00:34;;;;;;;7.85;7.18;;;;;;;;;;6247003;23;20000;-60
2021/07/07 02:02:59;;;;;;;8.77;7.97;;;;;;;;;;6247250;23;20004;-59
2021/07/07 02:05:28;;;;;;;8.25;7.60;;;;;;;;;;6220243;23;20087;-59
2021/07/07 02:07:54;;;;;;;9.13;8.32;;;;;;;;;;6246453;23;20000;-59
2021/07/07 02:10:19;;;;;;;9.20;8.35;;;;;;;;;;6246876;23;20004;-58
2021/07/07 02:12:45;;;;;;;8.65;7.75;;;;;;;;;;6246471;22;20050;-59
2021/07/07 02:15:13;;;;;;;8.98;8.20;;;;;;;;;;6246642;23;20468;-59
2021/07/07 02:17:39;;;;;;;8.48;7.78;;;;;;;;;;6246796;23;20008;-59
2021/07/07 02:20:06;;;;;;;8.57;7.80;;;;;;;;;;6246372;23;20467;-59
2021/07/07 02:22:33;;;;;;;9.88;8.90;;;;;;;;;;6246352;23;20085;-59
2021/07/07 02:24:58;;;;;;;9.73;8.85;;;;;;;;;;6247094;23;20433;-59
2021/07/07 02:27:23;;;;;;;8.85;8.07;;;;;;;;;;6246519;23;20015;-59
2021/07/07 02:29:49;;;;;;;9.40;8.57;;;;;;;;;;6246553;23;20278;-59
2021/07/07 02:32:15;;;;;;;9.07;8.25;;;;;;;;;;6246793;23;20026;-59
2021/07/07 02:34:41;;;;;;;9.07;8.30;;;;;;;;;;6246688;23;20333;-59
2021/07/07 02:37:07;;;;;;;9.18;8.30;;;;;;;;;;6246329;23;20148;-59
2021/07/07 02:39:34;;;;;;;9.07;8.18;;;;;;;;;;6246367;23;20004;-59
2021/07/07 02:41:59;;;;;;;9.95;9.00;;;;;;;;;;6246616;23;19996;-59
2021/07/07 02:44:26;;;;;;;9.35;8.52;;;;;;;;;;6246568;23;20054;-59
2021/07/07 02:46:51;;;;;;;10.75;8.75;;;;;;;;;;6246177;23;20000;-59
2021/07/07 02:49:19;;;;;;;9.25;8.40;;;;;;;;;;6246838;23;20008;-58
2021/07/07 02:51:44;;;;;;;9.75;8.93;;;;;;;;;;6219525;23;20127;-59
2021/07/07 02:54:11;;;;;;;10.27;9.18;;;;;;;;;;6246208;23;20051;-59
2021/07/07 02:56:37;;;;;;;9.95;9.05;;;;;;;;;;6245958;23;20006;-58
2021/07/07 02:59:02;;;;;;;10.90;9.77;;;;;;;;;;6246601;23;20044;-59
2021/07/07 03:01:28;;;;;;;10.10;9.20;;;;;;;;;;6246406;23;20054;-59
2021/07/07 03:03:53;;;;;;;11.55;9.27;;;;;;;;;;6219546;23;20008;-59
2021/07/07 03:06:19;;;;;;;10.25;9.05;;;;;;;;;;6246180;23;19996;-59
2021/07/07 03:08:46;;;;;;;11.75;9.50;;;;;;;;;;6246232;23;20004;-58
2021/07/07 03:11:11;;;;;;;10.23;9.27;;;;;;;;;;6219224;23;20301;-59
2021/07/07 03:13:37;;;;;;;10.35;9.35;;;;;;;;;;6245486;23;20058;-59
2021/07/07 03:16:03;;;;;;;10.75;9.65;;;;;;;;;;6246215;23;20058;-58
2021/07/07 03:18:29;;;;;;;10.57;9.32;;;;;;;;;;6246448;23;20008;-59
2021/07/07 03:20:56;;;;;;;9.80;8.80;;;;;;;;;;6246104;23;20086;-58
2021/07/07 03:23:23;;;;;;;10.68;9.23;;;;;;;;;;6246307;23;20008;-59
2021/07/07 03:25:51;;;;;;;12.25;9.55;;;;;;;;;;6247459;23;20000;-59
2021/07/07 03:28:18;;;;;;;9.95;9.05;;;;;;;;;;6248323;23;20058;-59
2021/07/07 03:30:44;;;;;;;9.95;9.07;;;;;;;;;;6248070;23;19996;-60
2021/07/07 03:33:10;;;;;;;10.40;9.50;;;;;;;;;;6247997;23;20004;-59
2021/07/07 03:35:36;;;;;;;10.25;9.27;;;;;;;;;;6248438;23;20373;-59
2021/07/07 03:38:04;;;;;;;11.02;9.57;;;;;;;;;;6247872;23;20004;-59
2021/07/07 03:40:30;;;;;;;10.18;9.27;;;;;;;;;;6247942;23;20022;-58
2021/07/07 03:42:57;;;;;;;13.18;9.75;;;;;;;;;;6247809;23;20007;-59
2021/07/07 03:45:23;;;;;;;10.77;9.75;;;;;;;;;;6247694;23;19999;-59
2021/07/07 03:47:48;;;;;;;10.85;9.68;;;;;;;;;;6220588;23;20012;-59
2021/07/07 03:50:15;;;;;;;10.07;9.18;;;;;;;;;;6246909;23;20000;-59
2021/07/07 03:52:41;;;;;;;10.20;9.15;;;;;;;;;;6247901;23;20088;-59
2021/07/07 03:55:08;;;;;;;11.15;10.00;;;;;;;;;;6247156;23;20023;-59
2021/07/07 03:57:35;;;;;;;10.23;9.32;;;;;;;;;;6247429;23;20054;-60
2021/07/07 04:00:00;;;;;;;11.82;10.05;;;;;;;;;;6247397;23;20007;-59
2021/07/07 04:02:26;;;;;;;10.45;9.55;;;;;;;;;;6247475;23;20012;-59
2021/07/07 04:04:52;;;;;;;11.68;9.57;;;;;;;;;;6247830;23;20011;-59
2021/07/07 04:07:18;;;;;;;10.43;9.40;;;;;;;;;;6247281;23;20029;-59
2021/07/07 04:09:44;;;;;;;10.88;9.75;;;;;;;;;;6247872;23;19999;-59
2021/07/07 04:12:09;;;;;;;11.52;10.32;;;;;;;;;;6247927;23;20078;-59
2021/07/07 04:14:34;;;;;;;10.65;9.65;;;;;;;;;;6247553;23;20016;-59
2021/07/07 04:17:00;;;;;;;11.75;9.75;;;;;;;;;;6247825;23;20023;-59
2021/07/07 04:19:26;;;;;;;10.88;9.77;;;;;;;;;;6247180;23;20021;-59
2021/07/07 04:21:52;;;;;;;11.02;9.85;;;;;;;;;;6247811;23;20012;-59
2021/07/07 04:24:18;;;;;;;10.80;9.77;;;;;;;;;;6247532;23;20007;-59
2021/07/07 04:26:44;;;;;;;11.80;9.85;;;;;;;;;;6247213;23;20459;-59
2021/07/07 04:29:09;;;;;;;10.70;9.65;;;;;;;;;;6220746;23;19992;-59
2021/07/07 04:31:35;;;;;;;11.38;9.20;;;;;;;;;;6247348;23;20005;-59
2021/07/07 04:34:01;;;;;;;12.82;9.80;;;;;;;;;;6247391;23;20003;-59
2021/07/07 04:36:26;;;;;;;11.20;9.68;;;;;;;;;;6246804;23;20008;-59
2021/07/07 04:38:51;;;;;;;10.73;9.68;;;;;;;;;;6247217;23;20027;-59
2021/07/07 04:41:17;;;;;;;10.98;10.00;;;;;;;;;;6220338;23;20011;-59
2021/07/07 04:43:42;;;;;;;14.25;10.27;;;;;;;;;;6247143;23;20015;-59
2021/07/07 04:46:09;;;;;;;14.93;10.35;;;;;;;;;;6246643;23;20011;-59
2021/07/07 04:48:34;;;;;;;10.77;9.68;;;;;;;;;;6247779;23;20065;-59
2021/07/07 04:51:00;;;;;;;11.38;10.30;;;;;;;;;;6247008;23;20440;-59
2021/07/07 04:53:25;;;;;;;10.48;9.52;;;;;;;;;;6247064;23;19996;-59
2021/07/07 04:55:51;;;;;;;11.05;9.02;;;;;;;;;;6246896;23;20082;-59
2021/07/07 04:58:17;;;;;;;14.18;9.68;;;;;;;;;;6246934;23;19996;-59
2021/07/07 05:00:42;;;;;;;10.45;9.48;;;;;;;;;;6220276;23;20008;-59
2021/07/07 05:03:08;;;;;;;10.40;9.32;;;;;;;;;;6247230;23;20079;-59
2021/07/07 05:05:33;;;;;;;10.75;9.65;;;;;;;;;;6246964;23;20000;-59
2021/07/07 05:07:59;;;;;;;11.20;9.80;;;;;;;;;;6246762;23;19996;-59
2021/07/07 05:10:24;;;;;;;11.00;9.18;;;;;;;;;;6246752;23;20004;-59
2021/07/07 05:12:50;;;;;;;13.32;10.13;;;;;;;;;;6246480;23;20031;-58
2021/07/07 05:15:16;;;;;;;10.70;9.60;;;;;;;;;;6220098;23;20047;-59
2021/07/07 05:17:41;;;;;;;11.43;9.82;;;;;;;;;;6246740;23;19996;-59
2021/07/07 05:20:07;;;;;;;10.35;9.45;;;;;;;;;;6246772;23;20004;-59
2021/07/07 05:22:33;;;;;;;10.18;9.27;;;;;;;;;;6246855;23;20302;-59
2021/07/07 05:24:58;;;;;;;10.25;9.25;;;;;;;;;;6219953;23;20019;-59
2021/07/07 05:27:24;;;;;;;10.85;9.85;;;;;;;;;;6246705;23;20000;-59
2021/07/07 05:29:50;;;;;;;10.20;9.25;;;;;;;;;;6246639;23;20371;-59
2021/07/07 05:32:21;;;;;;;9.45;8.65;;;;;;;;;;6246818;23;20324;-59
2021/07/07 05:34:47;;;;;;;9.98;8.98;;;;;;;;;;6246828;23;20008;-59
2021/07/07 05:37:13;;;;;;;9.65;8.73;;;;;;;;;;6246535;23;20298;-59
2021/07/07 05:39:38;;;;;;;9.13;8.32;;;;;;;;;;6246624;23;20000;-59
2021/07/07 05:42:04;;;;;;;9.25;8.27;;;;;;;;;;6245939;23;20000;-60
2021/07/07 05:44:29;;;;;;;7.97;7.10;;;;;;;;;;6246867;23;20012;-59
2021/07/07 05:46:54;;;;;;;8.48;7.70;;;;;;;;;;6246541;23;19996;-59
2021/07/07 05:49:20;;;;;;;13.02;8.57;;;;;;;;;;6246620;23;20050;-59
2021/07/07 05:51:45;;;;;;;9.20;7.90;;;;;;;;;;6246443;23;20298;-59
2021/07/07 05:54:11;;;;;;;9.25;8.35;;;;;;;;;;6246499;23;20043;-59
2021/07/07 05:56:36;;;;;;;9.93;8.70;;;;;;;;;;6246542;23;19996;-59
2021/07/07 05:59:02;;;;;;;15.43;8.63;;;;;;;;;;6219590;23;20444;-58
2021/07/07 06:01:27;;;;;;;12.38;8.88;;;;;;;;;;6246261;23;20083;-59
2021/07/07 06:03:52;;;;;;;9.93;8.40;;;;;;;;;;6246300;23;20505;-59
2021/07/07 06:06:18;;;;;;;9.27;8.32;;;;;;;;;;6219573;23;19996;-59
2021/07/07 06:08:43;;;;;;;10.60;8.23;;;;;;;;;;6219577;23;20008;-59
2021/07/07 06:11:10;;;;;;;8.88;7.97;;;;;;;;;;6246359;23;20327;-59
2021/07/07 06:13:36;;;;;;;10.15;7.63;;;;;;;;;;6245798;23;20008;-59
2021/07/07 06:16:01;;;;;;;7.28;6.57;;;;;;;;;;6246256;23;20563;-59
2021/07/07 06:18:27;;;;;;;7.00;6.18;;;;;;;;;;6246350;23;20011;-59
2021/07/07 06:20:52;;;;;;;7.47;6.78;;;;;;;;;;6246209;23;19996;-59
2021/07/07 06:23:18;;;;;;;7.18;6.47;;;;;;;;;;6246223;23;20043;-59
2021/07/07 06:25:43;;;;;;;8.45;6.90;;;;;;;;;;6246105;23;20006;-59
2021/07/07 06:28:09;;;;;;;9.98;6.47;;;;;;;;;;6246218;23;20038;-59
2021/07/07 06:30:34;;;;;;;9.07;6.25;;;;;;;;;;6246049;23;19996;-59
2021/07/07 06:33:01;;;;;;;8.60;6.13;;;;;;;;;;6246130;23;20019;-59
2021/07/07 06:35:29;;;;;;;7.03;6.25;;;;;;;;;;6218837;23;20078;-59
2021/07/07 06:37:56;;;;;;;6.95;6.35;;;;;;;;;;6246061;23;20011;-59
2021/07/07 06:40:22;;;;;;;7.07;6.47;;;;;;;;;;6246041;23;20007;-59
2021/07/07 06:42:48;;;;;;;7.60;6.85;;;;;;;;;;6246004;23;20004;-59
2021/07/07 06:45:14;;;;;;;7.40;6.75;;;;;;;;;;6246039;23;19995;-59
2021/07/07 06:47:39;;;;;;;9.48;6.82;;;;;;;;;;6219464;23;20011;-59
2021/07/07 06:50:05;;;;;;;7.72;6.90;;;;;;;;;;6246014;23;19988;-59
2021/07/07 06:52:31;;;;;;;9.68;6.93;;;;;;;;;;6246027;23;20000;-59
2021/07/07 06:54:57;;;;;;;10.43;7.10;;;;;;;;;;6245803;23;19992;-59
2021/07/07 06:57:22;;;;;;;8.30;6.95;;;;;;;;;;6245973;23;20004;-59
2021/07/07 06:59:47;;;;;;;7.93;6.28;;;;;;;;;;6245872;23;20004;-59
2021/07/07 07:02:13;;;;;;;10.82;6.85;;;;;;;;;;6245939;23;20436;-59
2021/07/07 07:04:38;;;;;;;9.90;6.68;;;;;;;;;;6245960;23;20003;-59
2021/07/07 07:07:04;;;;;;;7.70;6.13;;;;;;;;;;6245866;23;20011;-59
2021/07/07 07:09:29;;;;;;;8.02;6.18;;;;;;;;;;6245925;23;20002;-59
2021/07/07 07:11:55;;;;;;;7.75;6.07;;;;;;;;;;6245718;23;20478;-59
2021/07/07 07:14:20;;;;;;;8.25;6.18;;;;;;;;;;6245761;23;20008;-59
2021/07/07 07:16:46;;;;;;;9.20;6.63;;;;;;;;;;6245776;23;20006;-59
2021/07/07 07:19:13;;;;;;;8.88;5.85;;;;;;;;;;6245779;23;20004;-59
2021/07/07 07:21:39;;;;;;;7.35;6.18;;;;;;;;;;6245740;23;20012;-59
2021/07/07 07:24:04;;;;;;;7.97;6.43;;;;;;;;;;6245744;23;20083;-59
2021/07/07 07:26:30;;;;;;;15.10;12.35;;;;;;;;;;6245887;23;20047;-59
2021/07/07 07:28:56;;;;;;;10.18;6.90;;;;;;;;;;6245458;23;20094;-59
2021/07/07 07:31:22;;;;;;;6.22;5.70;;;;;;;;;;6219402;23;20092;-59
2021/07/07 07:33:48;;;;;;;9.82;5.65;;;;;;;;;;6245734;23;20022;-59
2021/07/07 07:36:14;;;;;;;5.15;4.75;;;;;;;;;;6245732;23;20004;-59
2021/07/07 07:38:43;;;;;;;4.82;4.43;;;;;;;;;;6245865;23;20094;-58
2021/07/07 07:41:08;;;;;;;4.50;4.20;;;;;;;;;;6245682;23;20015;-59
2021/07/07 07:43:34;;;;;;;4.25;3.85;;;;;;;;;;6245547;23;20025;-59
2021/07/07 07:46:00;;;;;;;4.25;3.90;;;;;;;;;;6218878;23;20087;-59
2021/07/07 07:48:26;;;;;;;4.20;3.90;;;;;;;;;;6245593;23;19992;-59
2021/07/07 07:50:51;;;;;;;4.10;3.80;;;;;;;;;;6245639;23;20329;-59
2021/07/07 07:53:17;;;;;;;3.92;3.72;;;;;;;;;;6245631;23;19993;-58
2021/07/07 07:55:42;;;;;;;3.53;3.33;;;;;;;;;;6245671;23;20440;-59
2021/07/07 07:58:08;;;;;;;4.20;3.50;;;;;;;;;;6245696;23;20004;-59
2021/07/07 08:00:34;;;;;;;5.70;3.58;;;;;;;;;;6245673;23;20332;-59
2021/07/07 08:03:00;;;;;;;4.30;3.65;;;;;;;;;;6245776;23;19996;-59
2021/07/07 08:05:26;;;;;;;3.25;3.05;;;;;;;;;;6245687;23;20000;-59
2021/07/07 08:07:52;;;;;;;3.15;2.90;;;;;;;;;;6245506;23;20000;-59
2021/07/07 08:10:19;;;;;;;3.30;3.10;;;;;;;;;;6245540;23;20000;-59
2021/07/07 08:12:45;;;;;;;3.08;2.88;;;;;;;;;;6246329;23;20130;-59
2021/07/07 08:15:11;;;;;;;3.10;2.72;;;;;;;;;;6247797;23;20008;-59
2021/07/07 08:17:37;;;;;;;3.67;3.13;;;;;;;;;;6247506;23;20016;-59
2021/07/07 08:20:06;;;;;;;3.72;3.25;;;;;;;;;;6247357;23;20008;-59
2021/07/07 08:22:32;;;;;;;3.35;3.00;;;;;;;;;;6247198;23;20023;-59
2021/07/07 08:24:57;;;;;;;3.17;2.97;;;;;;;;;;6220572;23;20019;-59
2021/07/07 08:27:22;;;;;;;3.58;3.28;;;;;;;;;;6247275;23;20050;-59
2021/07/07 08:29:48;;;;;;;3.33;3.05;;;;;;;;;;6220598;23;20049;-59
2021/07/07 08:32:13;;;;;;;3.47;3.00;;;;;;;;;;6247462;23;19992;-59
2021/07/07 08:34:39;;;;;;;3.40;3.10;;;;;;;;;;6220565;23;20000;-59
2021/07/07 08:37:04;;;;;;;3.00;2.80;;;;;;;;;;6247231;23;20302;-58
2021/07/07 08:39:30;;;;;;;3.35;3.05;;;;;;;;;;6247140;23;20004;-59
2021/07/07 08:41:56;;;;;;;3.35;3.05;;;;;;;;;;6247364;23;19996;-59
2021/07/07 08:44:22;;;;;;;3.08;2.88;;;;;;;;;;6247428;23;20008;-59
2021/07/07 08:46:47;;;;;;;2.50;2.40;;;;;;;;;;6247063;23;20328;-59
2021/07/07 08:49:13;;;;;;;2.85;2.65;;;;;;;;;;6246947;23;20007;-59
2021/07/07 08:51:42;;;;;;;3.50;2.80;;;;;;;;;;6247041;23;20003;-59
2021/07/07 08:54:08;;;;;;;2.92;2.75;;;;;;;;;;6247194;23;20062;-59
2021/07/07 08:56:38;;;;;;;2.67;2.50;;;;;;;;;;6247131;23;20007;-59
2021/07/07 08:59:04;;;;;;;2.88;2.67;;;;;;;;;;6247072;23;20011;-59
2021/07/07 09:01:29;;;;;;;3.08;2.72;;;;;;;;;;6247029;23;19997;-59
2021/07/07 09:03:55;;;;;;;2.92;2.72;;;;;;;;;;6246975;23;20051;-59
2021/07/07 09:06:20;;;;;;;3.03;2.58;;;;;;;;;;6246974;23;20000;-59
2021/07/07 09:08:47;;;;;;;2.70;2.47;;;;;;;;;;6247046;23;20004;-59
2021/07/07 09:11:18;;;;;;;2.90;2.70;;;;;;;;;;6246817;23;19996;-59
2021/07/07 09:13:44;;;;;;;2.65;2.55;;;;;;;;;;6246032;23;20015;-59
2021/07/07 09:16:10;;;;;;;3.25;3.05;;;;;;;;;;6246970;23;20008;-59
2021/07/07 09:18:36;;;;;;;3.00;2.80;;;;;;;;;;6246849;23;20091;-59
2021/07/07 09:21:02;;;;;;;2.28;2.17;;;;;;;;;;6246860;23;20042;-59
2021/07/07 09:23:29;;;;;;;2.30;2.20;;;;;;;;;;6219881;23;20004;-59
2021/07/07 09:25:54;;;;;;;2.85;2.65;;;;;;;;;;6246758;23;20000;-59
2021/07/07 09:28:23;;;;;;;3.38;3.08;;;;;;;;;;6246878;23;20508;-59
2021/07/07 09:30:48;;;;;;;2.95;2.75;;;;;;;;;;6246741;23;20351;-59
2021/07/07 09:33:14;;;;;;;3.58;3.33;;;;;;;;;;6246838;23;20031;-59
2021/07/07 09:35:41;;;;;;;3.33;3.03;;;;;;;;;;6246808;23;20034;-59
2021/07/07 09:38:07;;;;;;;3.72;3.05;;;;;;;;;;6219807;23;20007;-59
2021/07/07 09:40:36;;;;;;;3.30;3.10;;;;;;;;;;6246481;23;20117;-59
2021/07/07 09:43:03;;;;;;;3.50;3.07;;;;;;;;;;6246629;23;20014;-59
2021/07/07 09:45:28;;;;;;;3.42;3.10;;;;;;;;;;6246612;23;19996;-59
2021/07/07 09:47:54;;;;;;;3.20;3.00;;;;;;;;;;6246424;23;20014;-59
2021/07/07 09:50:19;;;;;;;3.33;3.10;;;;;;;;;;6246376;23;20371;-59
2021/07/07 09:52:45;;;;;;;5.10;3.17;;;;;;;;;;6219632;23;20004;-59
2021/07/07 09:55:10;;;;;;;4.93;3.33;;;;;;;;;;6246427;23;19996;-59
2021/07/07 09:57:46;;;;;;;3.28;3.08;;;;;;;;;;6246392;23;20058;-59
2021/07/07 10:00:13;;;;;;;3.00;2.80;;;;;;;;;;6246522;23;20012;-59
2021/07/07 10:02:39;;;;;;;2.80;2.67;;;;;;;;;;6246346;23;20026;-59
2021/07/07 10:05:06;;;;;;;2.53;2.25;;;;;;;;;;6246254;23;20331;-59
2021/07/07 10:07:32;;;;;;;2.72;2.53;;;;;;;;;;6246471;23;20000;-59
2021/07/07 10:09:57;;;;;;;2.92;2.72;;;;;;;;;;6219422;23;20047;-59
2021/07/07 10:12:26;;;;;;;4.57;2.88;;;;;;;;;;6246332;23;19996;-59
2021/07/07 10:14:52;;;;;;;2.80;2.60;;;;;;;;;;6219658;23;20016;-59
2021/07/07 10:17:17;;;;;;;3.00;2.80;;;;;;;;;;6246339;23;20095;-59
2021/07/07 10:19:44;;;;;;;5.32;2.42;;;;;;;;;;6246358;23;20008;-59
2021/07/07 10:22:09;;;;;;;3.33;2.80;;;;;;;;;;6246335;23;20074;-59
2021/07/07 10:24:35;;;;;;;2.50;2.40;;;;;;;;;;6246214;23;20428;-59
2021/07/07 10:27:02;;;;;;;2.70;2.50;;;;;;;;;;6246087;23;19996;-59
2021/07/07 10:29:28;;;;;;;3.10;2.88;;;;;;;;;;6246289;23;20022;-59
2021/07/07 10:31:55;;;;;;;6.53;3.00;;;;;;;;;;6246205;23;20408;-59
2021/07/07 10:34:21;;;;;;;2.78;2.67;;;;;;;;;;6245938;23;20354;-59
2021/07/07 10:36:47;;;;;;;2.80;2.70;;;;;;;;;;6246101;23;20329;-59
2021/07/07 10:39:14;;;;;;;3.15;2.90;;;;;;;;;;6246285;23;20332;-59
2021/07/07 10:41:42;;;;;;;3.08;2.80;;;;;;;;;;6246150;23;20454;-59
2021/07/07 10:44:08;;;;;;;3.08;2.75;;;;;;;;;;6219271;23;20015;-59
2021/07/07 10:46:54;;;;;;;3.40;3.10;;;;;;;;;;6246033;23;19996;-59
2021/07/07 10:49:20;;;;;;;2.75;2.65;;;;;;;;;;6246169;23;20004;-59
2021/07/07 10:51:46;;;;;;;3.13;2.83;;;;;;;;;;6245884;23;20007;-59
2021/07/07 10:54:22;;;;;;;2.90;2.70;;;;;;;;;;6245849;23;20010;-59
2021/07/07 10:56:48;;;;;;;3.45;2.60;;;;;;;;;;6245980;23;20062;-59
2021/07/07 10:59:28;;;;;;;3.25;3.03;;;;;;;;;;6246091;23;20371;-59
2021/07/07 11:02:18;;;;;;;4.88;2.70;;;;;;;;;;6246013;23;20027;-59
2021/07/07 11:04:43;;;;;;;3.55;3.25;;;;;;;;;;6200441;23;20074;-59
2021/07/07 11:07:41;;;;;;;3.20;2.90;;;;;;;;;;6245525;23;20004;-59
2021/07/07 11:10:07;;;;;;;2.85;2.65;;;;;;;;;;6137875;23;20015;-58
2021/07/07 11:12:35;;;;;;;2.75;2.55;;;;;;;;;;6245671;23;20000;-59
2021/07/07 11:15:10;;;;;;;2.60;2.40;;;;;;;;;;6245919;23;20004;-59
2021/07/07 11:17:38;;;;;;;2.95;2.40;;;;;;;;;;6245940;23;20058;-59
2021/07/07 11:20:04;;;;;;;2.92;2.70;;;;;;;;;;6245915;23;19996;-59
2021/07/07 11:22:29;;;;;;;2.58;2.47;;;;;;;;;;6245720;23;20010;-59
2021/07/07 11:24:55;;;;;;;2.65;2.45;;;;;;;;;;6245664;23;20001;-59
2021/07/07 11:27:21;;;;;;;2.50;2.40;;;;;;;;;;6245896;23;20011;-59
2021/07/07 11:29:46;;;;;;;2.90;2.67;;;;;;;;;;6219032;23;20014;-59
2021/07/07 11:32:22;;;;;;;3.17;2.90;;;;;;;;;;6218908;23;20446;-59
2021/07/07 11:34:52;;;;;;;3.75;2.70;;;;;;;;;;6245865;23;20408;-59
2021/07/07 11:37:19;;;;;;;2.38;2.20;;;;;;;;;;6245736;23;20015;-59
2021/07/07 11:39:44;;;;;;;2.83;2.70;;;;;;;;;;6245880;23;19997;-59
2021/07/07 11:42:10;;;;;;;2.78;2.67;;;;;;;;;;6219039;23;20011;-59
2021/07/07 11:44:40;;;;;;;4.55;3.17;;;;;;;;;;6245630;23;20023;-59
2021/07/07 11:47:05;;;;;;;3.90;2.85;;;;;;;;;;6247074;23;20031;-59
2021/07/07 11:49:30;;;;;;;3.05;2.80;;;;;;;;;;6247819;23;20408;-59
2021/07/07 11:52:05;;;;;;;3.17;2.88;;;;;;;;;;6247697;23;20004;-59
2021/07/07 11:54:49;;;;;;;5.05;2.80;;;;;;;;;;6220912;23;20332;-59
2021/07/07 11:57:14;;;;;;;18.55;4.07;;;;;;;;;;6247725;23;20490;-59
2021/07/07 11:59:40;;;;;;;3.20;2.90;;;;;;;;;;6247597;23;20074;-59
2021/07/07 12:02:06;;;;;;;3.13;2.92;;;;;;;;;;6247135;23;20083;-59
2021/07/07 12:04:31;;;;;;;2.28;2.17;;;;;;;;;;6247774;23;20323;-59
2021/07/07 12:06:57;;;;;;;2.90;2.70;;;;;;;;;;6247634;23;20083;-59
2021/07/07 12:09:22;;;;;;;3.25;3.05;;;;;;;;;;6247695;23;20000;-58
2021/07/07 12:11:48;;;;;;;3.25;2.90;;;;;;;;;;6220598;23;20468;-59
2021/07/07 12:14:13;;;;;;;2.90;2.70;;;;;;;;;;6247205;23;20008;-59
2021/07/07 12:16:40;;;;;;;2.85;2.65;;;;;;;;;;6247454;23;20008;-59
2021/07/07 12:19:07;;;;;;;3.03;2.58;;;;;;;;;;6247502;23;20081;-59
2021/07/07 12:21:43;;;;;;;3.25;2.55;;;;;;;;;;6247543;23;20436;-59
2021/07/07 12:24:13;;;;;;;3.65;2.40;;;;;;;;;;6220593;23;20031;-59
2021/07/07 12:26:40;;;;;;;3.67;2.70;;;;;;;;;;6247406;23;20008;-59
2021/07/07 12:29:08;;;;;;;2.58;2.47;;;;;;;;;;6220512;23;20004;-59
2021/07/07 12:31:39;;;;;;;2.85;2.65;;;;;;;;;;6247397;23;20024;-59
2021/07/07 12:34:06;;;;;;;2.38;2.28;;;;;;;;;;6247443;23;20004;-59
2021/07/07 12:36:32;;;;;;;2.70;2.50;;;;;;;;;;6220273;23;20008;-59
2021/07/07 12:39:00;;;;;;;2.28;2.15;;;;;;;;;;6247234;23;20008;-59
2021/07/07 12:41:39;;;;;;;2.53;2.42;;;;;;;;;;6247235;23;20024;-59
2021/07/07 12:44:15;;;;;;;3.20;2.20;;;;;;;;;;6247188;23;20014;-59
2021/07/07 12:46:50;;;;;;;30.40;4.60;;;;;;;;;;6247239;23;20004;-59
2021/07/07 12:49:22;;;;;;;2.63;2.53;;;;;;;;;;6247155;23;20012;-59
2021/07/07 12:51:49;;;;;;;8.32;3.03;;;;;;;;;;6247086;23;20000;-59
2021/07/07 12:54:18;;;;;;;2.83;2.63;;;;;;;;;;6246988;23;20050;-59
2021/07/07 12:56:59;;;;;;;6.97;4.15;;;;;;;;;;6246765;23;20008;-60
2021/07/07 12:59:25;;;;;;;5.40;4.40;;;;;;;;;;6246879;23;20143;-59
2021/07/07 13:02:02;;;;;;;2.90;2.63;;;;;;;;;;6247265;23;19996;-60
2021/07/07 13:04:27;;;;;;;6.63;3.95;;;;;;;;;;6247230;23;20004;-59
2021/07/07 13:07:03;;;;;;;3.65;2.60;;;;;;;;;;6247115;23;19997;-59
2021/07/07 13:09:29;;;;;;;5.20;3.30;;;;;;;;;;6247077;23;20011;-59
2021/07/07 13:12:05;;;;;;;3.78;3.42;;;;;;;;;;6246921;23;20020;-59
2021/07/07 13:14:31;;;;;;;3.30;3.00;;;;;;;;;;6220095;23;20041;-59
2021/07/07 13:16:56;;;;;;;7.85;5.00;;;;;;;;;;6247047;23;20310;-59
2021/07/07 13:19:26;;;;;;;3.17;2.97;;;;;;;;;;6246918;23;20399;-59
2021/07/07 13:21:57;;;;;;;5.35;2.95;;;;;;;;;;6246857;23;20000;-59
2021/07/07 13:24:23;;;;;;;3.08;2.90;;;;;;;;;;6220062;23;20015;-59
2021/07/07 13:26:57;;;;;;;3.42;2.85;;;;;;;;;;6246791;23;20004;-59
2021/07/07 13:29:23;;;;;;;4.00;2.97;;;;;;;;;;6246780;23;20086;-59
2021/07/07 13:32:03;;;;;;;4.38;3.28;;;;;;;;;;6246815;23;20074;-59
2021/07/07 13:34:29;;;;;;;3.70;3.00;;;;;;;;;;6246748;23;20000;-59
2021/07/07 13:36:55;;;;;;;4.28;2.83;;;;;;;;;;6219976;23;20000;-59
2021/07/07 13:39:22;;;;;;;4.55;3.40;;;;;;;;;;6246636;23;20331;-59
2021/07/07 13:41:48;;;;;;;10.77;2.83;;;;;;;;;;6246653;23;20087;-59
2021/07/07 13:44:14;;;;;;;4.85;3.25;;;;;;;;;;6246479;23;20046;-59
2021/07/07 13:46:39;;;;;;;3.03;2.83;;;;;;;;;;6246527;23;19996;-59
2021/07/07 13:49:04;;;;;;;2.83;2.47;;;;;;;;;;6246531;23;20332;-59
2021/07/07 13:51:30;;;;;;;3.50;2.83;;;;;;;;;;6245902;23;20046;-59
2021/07/07 13:53:56;;;;;;;3.28;2.97;;;;;;;;;;6246522;23;20012;-59
2021/07/07 13:56:21;;;;;;;4.50;4.00;;;;;;;;;;6246494;23;20004;-59
2021/07/07 13:58:47;;;;;;;4.55;3.45;;;;;;;;;;6246606;23;20012;-59
2021/07/07 14:01:12;;;;;;;5.07;4.00;;;;;;;;;;6246438;23;20000;-59
2021/07/07 14:03:38;;;;;;;3.55;3.25;;;;;;;;;;6246303;23;20011;-59
2021/07/07 14:06:04;;;;;;;3.45;3.25;;;;;;;;;;6246152;23;20004;-59
2021/07/07 14:08:29;;;;;;;3.20;2.90;;;;;;;;;;6219503;23;20011;-59
2021/07/07 14:10:54;;;;;;;3.22;2.92;;;;;;;;;;6245655;23;19992;-59
2021/07/07 14:13:20;;;;;;;3.30;3.03;;;;;;;;;;6245946;23;20014;-58
2021/07/07 14:15:46;;;;;;;3.10;2.90;;;;;;;;;;6246455;23;20006;-59
2021/07/07 14:18:11;;;;;;;3.03;2.80;;;;;;;;;;6246387;23;20008;-59
2021/07/07 14:20:37;;;;;;;6.50;3.08;;;;;;;;;;6246282;23;19996;-59
2021/07/07 14:23:02;;;;;;;3.33;3.03;;;;;;;;;;6246271;23;20388;-59
2021/07/07 14:25:28;;;;;;;4.93;3.25;;;;;;;;;;6219259;23;20079;-59
2021/07/07 14:27:53;;;;;;;3.50;3.30;;;;;;;;;;6246481;23;20397;-59
2021/07/07 14:30:19;;;;;;;3.67;3.47;;;;;;;;;;6246526;23;19999;-59
2021/07/07 14:32:48;;;;;;;3.75;3.40;;;;;;;;;;6246032;23;20314;-59
2021/07/07 14:35:13;;;;;;;3.58;3.38;;;;;;;;;;6246498;23;20090;-59
2021/07/07 14:37:40;;;;;;;5.20;4.05;;;;;;;;;;6246604;23;20086;-59